createdAt,value
2023-05-28T00:02:03.937Z,10.30
2023-05-28T00:06:26.529Z,10.18
2023-05-28T00:10:39.068Z,10.17
2023-05-28T00:14:52.046Z,10.03
2023-05-28T00:19:06.171Z,9.95
2023-05-28T00:23:19.155Z,9.86
2023-05-28T00:27:31.812Z,9.80
2023-05-28T00:31:44.363Z,9.73
2023-05-28T00:35:58.142Z,9.80
2023-05-28T00:40:11.539Z,9.78
2023-05-28T00:44:24.284Z,9.75
2023-05-28T00:48:48.253Z,9.74
2023-05-28T00:53:01.641Z,9.73
2023-05-28T00:57:14.117Z,9.69
2023-05-28T01:01:37.505Z,9.64
2023-05-28T01:05:50.149Z,9.59
2023-05-28T01:10:02.819Z,9.53
2023-05-28T01:14:24.460Z,9.49
2023-05-28T01:18:39.361Z,9.55
2023-05-28T01:22:57.860Z,9.43
2023-05-28T01:27:10.330Z,9.48
2023-05-28T01:31:22.953Z,9.69
2023-05-28T01:35:45.580Z,9.84
2023-05-28T01:39:59.680Z,9.78
2023-05-28T01:44:14.844Z,9.74
2023-05-28T01:48:28.021Z,9.71
2023-05-28T01:52:41.171Z,9.49
2023-05-28T01:56:53.677Z,9.64
2023-05-28T02:01:32.692Z,9.59
2023-05-28T02:05:45.273Z,9.47
2023-05-28T02:09:58.110Z,9.36
2023-05-28T02:14:16.265Z,9.32
2023-05-28T02:18:28.889Z,9.28
2023-05-28T02:22:51.106Z,9.13
2023-05-28T02:27:14.351Z,9.14
2023-05-28T02:31:27.053Z,9.00
2023-05-28T02:35:39.682Z,8.96
2023-05-28T02:39:52.765Z,8.93
2023-05-28T02:44:05.306Z,8.76
2023-05-28T02:48:28.269Z,8.68
2023-05-28T02:52:40.802Z,8.61
2023-05-28T02:57:03.960Z,8.59
2023-05-28T03:01:16.582Z,8.50
2023-05-28T03:05:29.205Z,8.44
2023-05-28T03:09:41.643Z,8.39
2023-05-28T03:13:54.113Z,8.32
2023-05-28T03:18:07.667Z,8.26
2023-05-28T03:22:22.154Z,8.17
2023-05-28T03:26:34.805Z,8.25
2023-05-28T03:30:47.372Z,8.26
2023-05-28T03:35:00.256Z,8.37
2023-05-28T03:39:13.209Z,8.27
2023-05-28T03:43:25.754Z,8.28
2023-05-28T03:47:38.374Z,8.26
2023-05-28T03:51:51.010Z,8.48
2023-05-28T03:56:03.621Z,8.50
2023-05-28T04:00:16.699Z,8.38
2023-05-28T04:04:29.542Z,8.48
2023-05-28T04:08:42.131Z,8.44
2023-05-28T04:12:56.723Z,8.63
2023-05-28T04:17:12.930Z,8.70
2023-05-28T04:21:25.678Z,8.85
2023-05-28T04:25:38.895Z,8.97
2023-05-28T04:29:51.434Z,9.17
2023-05-28T04:34:05.794Z,9.23
2023-05-28T04:38:19.202Z,9.47
2023-05-28T04:42:31.878Z,9.74
2023-05-28T04:46:47.097Z,9.99
2023-05-28T04:51:09.754Z,10.17
2023-05-28T04:55:22.238Z,10.40
2023-05-28T04:59:36.852Z,10.66
2023-05-28T05:03:49.746Z,10.96
2023-05-28T05:08:15.158Z,11.26
2023-05-28T05:12:27.645Z,11.46
2023-05-28T05:16:40.301Z,11.69
2023-05-28T05:20:53.194Z,11.85
2023-05-28T05:25:06.356Z,12.15
2023-05-28T05:29:18.885Z,12.25
2023-05-28T05:33:31.356Z,12.46
2023-05-28T05:37:44.266Z,12.66
2023-05-28T05:41:56.993Z,12.80
2023-05-28T05:46:09.559Z,12.82
2023-05-28T05:50:22.226Z,13.09
2023-05-28T05:54:34.821Z,13.16
2023-05-28T05:58:47.323Z,13.44
2023-05-28T06:02:59.984Z,13.59
2023-05-28T06:07:12.624Z,13.81
2023-05-28T06:11:25.624Z,13.89
2023-05-28T06:15:40.300Z,14.05
2023-05-28T06:19:54.271Z,14.34
2023-05-28T06:24:16.908Z,14.22
2023-05-28T06:28:29.493Z,14.55
2023-05-28T06:32:43.358Z,14.70
2023-05-28T06:36:56.132Z,15.01
2023-05-28T06:41:18.752Z,15.25
2023-05-28T06:45:31.360Z,15.29
2023-05-28T06:49:43.897Z,15.52
2023-05-28T06:53:56.425Z,15.48
2023-05-28T06:58:08.945Z,15.76
2023-05-28T07:02:31.905Z,15.93
2023-05-28T07:06:44.845Z,16.20
2023-05-28T07:10:57.323Z,16.34
2023-05-28T07:15:10.627Z,16.52
2023-05-28T07:19:23.164Z,17.06
2023-05-28T07:23:35.697Z,17.07
2023-05-28T07:27:48.219Z,17.19
2023-05-28T07:32:01.220Z,17.39
2023-05-28T07:36:14.306Z,17.51
2023-05-28T07:40:27.446Z,17.78
2023-05-28T07:44:40.349Z,18.08
2023-05-28T07:48:53.023Z,18.44
2023-05-28T07:53:05.514Z,18.83
2023-05-28T07:57:18.047Z,19.78
2023-05-28T08:01:31.271Z,19.85
2023-05-28T08:05:44.330Z,20.42
2023-05-28T08:09:56.928Z,19.50
2023-05-28T08:14:09.447Z,20.66
2023-05-28T08:18:21.909Z,20.85
2023-05-28T08:22:34.374Z,21.04
2023-05-28T08:26:47.302Z,21.46
2023-05-28T08:30:59.924Z,22.37
2023-05-28T08:35:22.823Z,21.78
2023-05-28T08:39:35.520Z,21.40
2023-05-28T08:43:49.435Z,21.57
2023-05-28T08:48:04.004Z,22.10
2023-05-28T08:52:21.551Z,22.30
2023-05-28T08:56:45.504Z,23.15
2023-05-28T09:00:58.195Z,22.86
2023-05-28T09:05:11.808Z,23.77
2023-05-28T09:09:26.189Z,23.61
2023-05-28T09:13:46.315Z,21.87
2023-05-28T09:18:01.692Z,23.40
2023-05-28T09:22:15.289Z,23.75
2023-05-28T09:26:33.849Z,23.04
2023-05-28T09:30:47.635Z,23.02
2023-05-28T09:35:00.336Z,24.21
2023-05-28T09:39:12.966Z,24.43
2023-05-28T09:43:31.782Z,22.97
2023-05-28T09:47:45.989Z,24.16
2023-05-28T09:52:01.233Z,24.31
2023-05-28T09:56:15.225Z,23.96
2023-05-28T10:00:35.397Z,23.82
2023-05-28T10:05:02.808Z,24.55
2023-05-28T10:09:19.631Z,24.60
2023-05-28T10:13:34.854Z,26.46
2023-05-28T10:17:52.802Z,26.16
2023-05-28T10:22:05.915Z,26.51
2023-05-28T10:26:20.134Z,26.38
2023-05-28T10:30:39.967Z,24.81
2023-05-28T10:35:05.593Z,26.85
2023-05-28T10:39:28.156Z,27.21
2023-05-28T10:43:40.565Z,28.02
2023-05-28T10:47:56.011Z,26.45
2023-05-28T10:52:08.569Z,25.33
2023-05-28T10:56:21.122Z,27.00
2023-05-28T11:00:42.679Z,28.39
2023-05-28T11:04:57.634Z,28.75
2023-05-28T11:09:12.461Z,28.53
2023-05-28T11:13:27.346Z,28.16
2023-05-28T11:17:43.200Z,26.24
2023-05-28T11:21:59.911Z,27.14
2023-05-28T11:26:24.589Z,28.02
2023-05-28T11:30:37.309Z,28.73
2023-05-28T11:34:58.859Z,27.82
2023-05-28T11:39:12.442Z,26.60
2023-05-28T11:43:27.585Z,27.01
2023-05-28T11:47:41.195Z,27.09
2023-05-28T11:51:54.718Z,26.87
2023-05-28T11:56:17.343Z,27.36
2023-05-28T12:00:39.743Z,27.74
2023-05-28T12:05:19.741Z,28.48
2023-05-28T12:09:32.599Z,28.24
2023-05-28T12:13:55.135Z,27.58
2023-05-28T12:18:08.751Z,28.06
2023-05-28T12:22:21.393Z,28.19
2023-05-28T12:26:44.015Z,28.55
2023-05-28T12:30:57.575Z,26.53
2023-05-28T12:35:10.494Z,28.20
2023-05-28T12:39:23.049Z,28.36
2023-05-28T12:43:35.552Z,28.21
2023-05-28T12:47:58.123Z,29.98
2023-05-28T12:52:10.795Z,29.53
2023-05-28T12:56:23.298Z,29.46
2023-05-28T13:00:37.067Z,27.76
2023-05-28T13:04:49.583Z,26.15
2023-05-28T13:09:02.132Z,27.85
2023-05-28T13:13:24.638Z,27.28
2023-05-28T13:17:37.248Z,29.77
2023-05-28T13:21:50.753Z,26.68
2023-05-28T13:26:03.308Z,27.63
2023-05-28T13:30:16.002Z,27.73
2023-05-28T13:34:28.502Z,28.97
2023-05-28T13:38:49.347Z,29.47
2023-05-28T13:43:01.879Z,29.13
2023-05-28T13:47:24.479Z,29.62
2023-05-28T13:51:37.778Z,27.26
2023-05-28T13:55:50.295Z,28.87
2023-05-28T14:00:08.796Z,28.68
2023-05-28T14:04:21.407Z,28.64
2023-05-28T14:08:35.724Z,28.74
2023-05-28T14:12:54.112Z,27.76
2023-05-28T14:17:06.626Z,29.78
2023-05-28T14:21:19.177Z,28.65
2023-05-28T14:25:32.303Z,29.95
2023-05-28T14:29:44.825Z,29.39
2023-05-28T14:33:57.835Z,29.52
2023-05-28T14:38:10.422Z,28.84
2023-05-28T14:42:22.974Z,28.09
2023-05-28T14:46:35.723Z,27.89
2023-05-28T14:50:48.327Z,28.43
2023-05-28T14:55:01.254Z,29.00
2023-05-28T14:59:13.829Z,29.27
2023-05-28T15:03:26.594Z,29.26
2023-05-28T15:07:39.133Z,29.24
2023-05-28T15:11:51.813Z,27.86
2023-05-28T15:16:04.943Z,28.29
2023-05-28T15:20:18.412Z,27.18
2023-05-28T15:24:33.213Z,28.60
2023-05-28T15:28:45.881Z,29.70
2023-05-28T15:32:59.819Z,28.37
2023-05-28T15:37:13.254Z,29.97
2023-05-28T15:41:27.663Z,29.88
2023-05-28T15:45:40.283Z,29.80
2023-05-28T15:49:52.848Z,30.98
2023-05-28T15:54:15.502Z,29.19
2023-05-28T15:58:28.114Z,29.15
2023-05-28T16:02:43.178Z,29.98
2023-05-28T16:06:55.977Z,29.05
2023-05-28T16:11:20.106Z,28.98
2023-05-28T16:15:34.874Z,28.62
2023-05-28T16:19:47.737Z,28.62
2023-05-28T16:24:00.285Z,28.43
2023-05-28T16:28:13.773Z,27.25
2023-05-28T16:32:28.053Z,27.66
2023-05-28T16:36:50.836Z,26.91
2023-05-28T16:41:03.771Z,27.87
2023-05-28T16:45:20.875Z,28.06
2023-05-28T16:49:33.627Z,28.16
2023-05-28T16:53:47.638Z,28.00
2023-05-28T16:58:03.558Z,27.53
2023-05-28T17:02:16.329Z,25.75
2023-05-28T17:06:32.834Z,25.73
2023-05-28T17:10:45.802Z,26.16
2023-05-28T17:14:58.296Z,26.13
2023-05-28T17:19:10.820Z,26.48
2023-05-28T17:23:23.339Z,26.15
2023-05-28T17:27:45.838Z,25.77
2023-05-28T17:32:08.481Z,26.51
2023-05-28T17:36:21.150Z,26.41
2023-05-28T17:40:34.440Z,25.94
2023-05-28T17:44:46.900Z,25.71
2023-05-28T17:49:00.292Z,24.16
2023-05-28T17:53:12.859Z,23.72
2023-05-28T17:57:25.477Z,22.53
2023-05-28T18:01:38.205Z,21.72
2023-05-28T18:05:50.840Z,21.37
2023-05-28T18:10:04.884Z,21.30
2023-05-28T18:14:17.667Z,20.74
2023-05-28T18:18:30.401Z,20.34
2023-05-28T18:22:42.926Z,19.88
2023-05-28T18:26:55.447Z,19.62
2023-05-28T18:31:07.977Z,19.18
2023-05-28T18:35:21.718Z,19.10
2023-05-28T18:39:34.581Z,18.66
2023-05-28T18:43:47.099Z,18.38
2023-05-28T18:48:01.114Z,18.16
2023-05-28T18:52:15.502Z,17.83
2023-05-28T18:56:37.988Z,17.43
2023-05-28T19:00:50.643Z,17.13
2023-05-28T19:05:13.493Z,16.91
2023-05-28T19:09:25.984Z,16.50
2023-05-28T19:13:38.656Z,16.30
2023-05-28T19:17:51.332Z,15.76
2023-05-28T19:22:04.387Z,15.58
2023-05-28T19:26:27.030Z,15.29
2023-05-28T19:30:39.634Z,15.12
2023-05-28T19:34:52.213Z,14.93
2023-05-28T19:39:05.738Z,14.68
2023-05-28T19:43:19.854Z,14.34
2023-05-28T19:47:32.641Z,14.42
2023-05-28T19:51:45.284Z,14.27
2023-05-28T19:55:57.769Z,14.14
2023-05-28T20:00:12.422Z,13.88
2023-05-28T20:04:25.062Z,13.80
2023-05-28T20:08:37.600Z,13.66
2023-05-28T20:12:50.090Z,13.75
2023-05-28T20:17:03.576Z,13.53
2023-05-28T20:21:16.924Z,13.41
2023-05-28T20:25:31.009Z,13.25
2023-05-28T20:29:43.885Z,13.14
2023-05-28T20:33:56.329Z,12.95
2023-05-28T20:38:08.848Z,13.03
2023-05-28T20:42:21.419Z,12.99
2023-05-28T20:46:34.512Z,12.82
2023-05-28T20:50:47.222Z,12.70
2023-05-28T20:55:06.590Z,12.67
2023-05-28T20:59:19.101Z,12.65
2023-05-28T21:03:31.674Z,12.59
2023-05-28T21:07:44.198Z,12.67
2023-05-28T21:12:07.676Z,12.58
2023-05-28T21:16:20.276Z,12.40
2023-05-28T21:20:32.788Z,12.33
2023-05-28T21:24:46.121Z,12.24
2023-05-28T21:28:59.014Z,12.05
2023-05-28T21:33:11.491Z,11.97
2023-05-28T21:37:24.045Z,11.94
2023-05-28T21:41:38.247Z,11.90
2023-05-28T21:45:50.782Z,11.88
2023-05-28T21:50:05.927Z,11.78
2023-05-28T21:54:28.404Z,11.84
2023-05-28T21:58:41.855Z,11.68
2023-05-28T22:02:54.532Z,11.51
2023-05-28T22:07:07.823Z,11.46
2023-05-28T22:11:20.295Z,11.45
2023-05-28T22:15:32.790Z,11.33
2023-05-28T22:19:45.627Z,11.32
2023-05-28T22:23:58.854Z,11.31
2023-05-28T22:28:11.856Z,11.20
2023-05-28T22:32:35.150Z,11.11
2023-05-28T22:36:58.289Z,11.02
2023-05-28T22:41:10.792Z,10.94
2023-05-28T22:45:23.309Z,10.92
2023-05-28T22:49:35.875Z,10.85
2023-05-28T22:53:50.428Z,10.96
2023-05-28T22:58:02.935Z,10.85
2023-05-28T23:02:15.568Z,10.78
2023-05-28T23:06:29.262Z,10.63
2023-05-28T23:10:52.496Z,10.64
2023-05-28T23:15:06.110Z,10.77
2023-05-28T23:19:28.881Z,10.71
2023-05-28T23:23:41.426Z,10.61
2023-05-28T23:27:53.965Z,10.55
2023-05-28T23:32:07.357Z,10.32
2023-05-28T23:36:20.688Z,10.22
2023-05-28T23:40:33.221Z,10.31
2023-05-28T23:44:54.072Z,10.34
2023-05-28T23:49:06.979Z,10.17
2023-05-28T23:53:20.492Z,10.16
2023-05-28T23:57:33.020Z,10.00
